Time;durP1;ratioP1;P1;durP2;ratioP2;P2;SDS_P1;SDS_P2;PMS_P1;PMS_P2;Temp;Humidity;BMP_temperature;BMP_pressure;BME280_temperature;BME280_humidity;BME280_pressure;Samples;Min_cycle;Max_cycle;Signal;HPM_P1;HPM_P2
2021/08/25 00:00:10;;;;;;;;;;;;;;;12.65;84.14;97538.19;30001;983;1879;-66
2021/08/25 00:00:43;;;;;;;;;;;;;;;12.63;83.90;97538.47;30001;983;1875;-61
2021/08/25 00:01:14;;;;;;;;;;;;;;;12.63;84.11;97541.22;30001;983;1879;-66
2021/08/25 00:01:44;;;;;;;;;;;;;;;12.62;84.14;97534.13;30001;983;1875;-60
2021/08/25 00:02:15;;;;;;;;;;;;;;;12.61;84.18;97543.41;30001;983;1879;-66
2021/08/25 00:02:46;;;;;;;;;;;;;;;12.62;84.04;97536.06;30001;983;1858;-67
2021/08/25 00:03:17;;;;;;;;;;;;;;;12.61;84.24;97540.69;30001;983;1875;-61
2021/08/25 00:03:49;;;;;;;;;;;;;;;12.62;84.20;97544.22;30001;983;1875;-66
2021/08/25 00:04:20;;;;;;;;;;;;;;;12.61;84.19;97537.97;30001;982;1862;-66
2021/08/25 00:04:51;;;;;;;;;;;;;;;12.60;84.24;97539.06;30001;982;1871;-61
2021/08/25 00:05:23;;;;;;;;;;;;;;;12.60;84.21;97540.97;30001;982;1880;-61
2021/08/25 00:05:54;;;;;;;;;;;;;;;12.59;84.13;97534.72;30001;982;1876;-61
2021/08/25 00:06:24;;;;;;;;;;;;;;;12.59;84.44;97533.91;30001;982;1880;-61
2021/08/25 00:06:55;;;;;;;;;;;;;;;12.58;83.99;97538.53;30001;982;1876;-60
2021/08/25 00:07:27;;;;;;;;;;;;;;;12.58;84.13;97540.44;30001;976;1899;-67
2021/08/25 00:07:58;;;;;;;;;;;;;;;12.57;83.94;97531.47;30001;983;1875;-65
2021/08/25 00:08:28;;;;;;;;;;;;;;;12.59;84.14;97540.16;30001;983;1879;-68
2021/08/25 00:08:59;;;;;;;;;;;;;;;12.59;83.82;97531.19;30001;983;1875;-60
2021/08/25 00:09:30;;;;;;;;;;;;;;;12.58;83.94;97537.72;30001;983;1862;-67
2021/08/25 00:10:01;;;;;;;;;;;;;;;12.59;83.88;97542.88;30001;983;1853;-66
2021/08/25 00:10:32;;;;;;;;;;;;;;;12.59;83.40;97537.44;30001;983;1880;-66
2021/08/25 00:11:04;;;;;;;;;;;;;;;12.60;83.82;97543.69;30001;983;1875;-65
2021/08/25 00:11:35;;;;;;;;;;;;;;;12.60;83.52;97538.25;30001;982;1880;-67
2021/08/25 00:12:07;;;;;;;;;;;;;;;12.60;83.60;97547.22;30001;982;1875;-66
2021/08/25 00:12:39;;;;;;;;;;;;;;;12.59;84.09;97542.88;30001;982;1880;-67
2021/08/25 00:13:10;;;;;;;;;;;;;;;12.58;83.96;97543.16;30001;982;1876;-67
2021/08/25 00:13:41;;;;;;;;;;;;;;;12.56;84.03;97543.47;30001;982;1880;-66
2021/08/25 00:14:12;;;;;;;;;;;;;;;12.55;84.25;97539.13;30001;983;1875;-66
2021/08/25 00:14:43;;;;;;;;;;;;;;;12.54;84.42;97534.78;30001;983;1879;-66
2021/08/25 00:15:14;;;;;;;;;;;;;;;12.54;84.47;97542.94;30001;983;1857;-67
2021/08/25 00:15:45;;;;;;;;;;;;;;;12.53;84.07;97535.06;30001;983;1875;-67
2021/08/25 00:16:16;;;;;;;;;;;;;;;12.52;84.23;97539.69;30001;983;1875;-67
2021/08/25 00:16:47;;;;;;;;;;;;;;;12.52;84.25;97539.69;30001;983;1879;-65
2021/08/25 00:17:19;;;;;;;;;;;;;;;12.52;83.94;97538.87;30001;983;1875;-66
2021/08/25 00:17:49;;;;;;;;;;;;;;;12.53;84.01;97537.78;30001;983;1880;-66
2021/08/25 00:18:20;;;;;;;;;;;;;;;12.54;84.09;97539.41;30001;983;1875;-67
2021/08/25 00:18:51;;;;;;;;;;;;;;;12.52;84.04;97534.25;30001;983;1880;-65
2021/08/25 00:19:22;;;;;;;;;;;;;;;12.52;84.40;97533.44;30001;982;1875;-60
2021/08/25 00:19:53;;;;;;;;;;;;;;;12.49;84.67;97534.00;30001;982;1880;-67
2021/08/25 00:20:23;;;;;;;;;;;;;;;12.48;84.85;97537.84;30001;982;1858;-66
2021/08/25 00:20:54;;;;;;;;;;;;;;;12.46;84.73;97540.06;30001;982;1876;-66
2021/08/25 00:21:25;;;;;;;;;;;;;;;12.45;84.64;97539.25;30001;982;1876;-66
2021/08/25 00:21:56;;;;;;;;;;;;;;;12.47;84.80;97530.78;30001;983;1862;-67
2021/08/25 00:22:27;;;;;;;;;;;;;;;12.45;84.54;97536.53;30001;983;1871;-67
2021/08/25 00:22:58;;;;;;;;;;;;;;;12.46;84.43;97538.16;30001;983;1879;-66
2021/08/25 00:23:29;;;;;;;;;;;;;;;12.45;84.68;97533.00;30001;983;1875;-66
2021/08/25 00:24:00;;;;;;;;;;;;;;;12.45;84.67;97538.44;30001;983;1879;-66
2021/08/25 00:24:31;;;;;;;;;;;;;;;12.44;84.98;97532.19;30001;973;1892;-66
2021/08/25 00:25:02;;;;;;;;;;;;;;;12.44;84.98;97537.63;30001;983;1862;-66
2021/08/25 00:25:33;;;;;;;;;;;;;;;12.43;84.80;97536.00;30001;983;1871;-66
2021/08/25 00:26:04;;;;;;;;;;;;;;;12.44;85.26;97532.19;30001;983;1880;-65
2021/08/25 00:26:35;;;;;;;;;;;;;;;12.41;85.39;97533.56;30001;983;1875;-66
2021/08/25 00:27:06;;;;;;;;;;;;;;;12.40;85.02;97531.94;30001;982;1880;-66
2021/08/25 00:27:37;;;;;;;;;;;;;;;12.39;85.17;97532.25;30001;982;1876;-67
2021/08/25 00:28:08;;;;;;;;;;;;;;;12.38;85.41;97536.88;30001;982;1880;-66
2021/08/25 00:28:38;;;;;;;;;;;;;;;12.37;85.19;97531.72;30001;982;1875;-65
2021/08/25 00:29:09;;;;;;;;;;;;;;;12.37;84.99;97529.81;30001;983;1879;-65
2021/08/25 00:29:40;;;;;;;;;;;;;;;12.37;85.23;97531.72;30001;983;1875;-68
2021/08/25 00:30:12;;;;;;;;;;;;;;;12.35;85.02;97533.91;30001;965;1879;-66
2021/08/25 00:30:42;;;;;;;;;;;;;;;12.34;85.63;97527.66;30001;983;1871;-67
2021/08/25 00:31:14;;;;;;;;;;;;;;;12.34;85.84;97532.28;30001;983;1879;-67
2021/08/25 00:31:45;;;;;;;;;;;;;;;12.32;85.89;97535.28;30001;983;1875;-66
2021/08/25 00:32:15;;;;;;;;;;;;;;;12.31;86.18;97527.41;30001;983;1879;-66
2021/08/25 00:32:46;;;;;;;;;;;;;;;12.29;86.07;97524.97;30001;983;1875;-67
2021/08/25 00:33:17;;;;;;;;;;;;;;;12.30;85.82;97531.25;30001;983;1880;-67
2021/08/25 00:33:48;;;;;;;;;;;;;;;12.31;85.59;97527.41;30001;983;1875;-68
2021/08/25 00:34:19;;;;;;;;;;;;;;;12.33;85.60;97525.22;30001;982;1880;-60
2021/08/25 00:34:49;;;;;;;;;;;;;;;12.33;85.41;97519.78;30001;982;1875;-66
2021/08/25 00:35:20;;;;;;;;;;;;;;;12.34;85.50;97522.22;30001;982;1862;-67
2021/08/25 00:35:51;;;;;;;;;;;;;;;12.34;85.11;97526.84;30001;982;1871;-66
2021/08/25 00:36:22;;;;;;;;;;;;;;;12.35;85.13;97520.31;30001;982;1880;-60
2021/08/25 00:36:53;;;;;;;;;;;;;;;12.34;85.56;97518.69;30001;983;1875;-65
2021/08/25 00:37:24;;;;;;;;;;;;;;;12.34;85.05;97522.22;30001;983;1879;-60
2021/08/25 00:37:54;;;;;;;;;;;;;;;12.33;85.13;97522.50;30001;983;1875;-66
2021/08/25 00:38:25;;;;;;;;;;;;;;;12.33;85.24;97525.22;30001;983;1879;-65
2021/08/25 00:38:56;;;;;;;;;;;;;;;12.33;85.44;97531.47;30001;983;1875;-66
2021/08/25 00:39:27;;;;;;;;;;;;;;;12.34;85.29;97526.84;30001;983;1862;-66
2021/08/25 00:39:58;;;;;;;;;;;;;;;12.33;85.33;97526.03;30001;983;1871;-67
2021/08/25 00:40:29;;;;;;;;;;;;;;;12.32;85.41;97518.97;30001;983;1880;-67
2021/08/25 00:41:00;;;;;;;;;;;;;;;12.32;85.63;97529.84;30001;983;1875;-66
2021/08/25 00:41:31;;;;;;;;;;;;;;;12.32;85.59;97523.59;30001;983;1879;-66
2021/08/25 00:42:02;;;;;;;;;;;;;;;12.32;85.37;97520.88;30001;982;1876;-66
2021/08/25 00:42:33;;;;;;;;;;;;;;;12.32;85.33;97520.88;30001;982;1880;-66
2021/08/25 00:43:05;;;;;;;;;;;;;;;12.30;85.51;97521.16;30001;982;1876;-66
2021/08/25 00:43:36;;;;;;;;;;;;;;;12.29;85.89;97516.00;30001;982;1880;-68
2021/08/25 00:44:06;;;;;;;;;;;;;;;12.27;85.90;97516.28;30001;982;1858;-66
2021/08/25 00:44:37;;;;;;;;;;;;;;;12.28;85.94;97525.28;30001;983;1875;-66
2021/08/25 00:45:09;;;;;;;;;;;;;;;12.27;86.05;97515.47;30001;983;1875;-65
2021/08/25 00:45:43;;;;;;;;;;;;;;;12.27;85.97;97515.47;30001;983;1879;-66
2021/08/25 00:46:16;;;;;;;;;;;;;;;12.24;86.04;97516.06;30001;983;1875;-66
2021/08/25 00:46:47;;;;;;;;;;;;;;;12.23;86.37;97509.00;30001;983;1880;-61
2021/08/25 00:47:18;;;;;;;;;;;;;;;12.21;86.66;97511.19;30001;983;1875;-66
2021/08/25 00:47:49;;;;;;;;;;;;;;;12.20;87.00;97504.94;30001;983;1880;-67
2021/08/25 00:48:20;;;;;;;;;;;;;;;12.19;86.67;97510.66;30001;983;1858;-67
2021/08/25 00:48:52;;;;;;;;;;;;;;;12.16;86.72;97506.59;30001;982;1875;-59
2021/08/25 00:49:23;;;;;;;;;;;;;;;12.16;86.37;97508.50;30001;982;1876;-60
2021/08/25 00:49:54;;;;;;;;;;;;;;;12.13;86.42;97509.13;30001;982;1880;-66
2021/08/25 00:50:24;;;;;;;;;;;;;;;12.13;86.65;97498.25;30001;982;1876;-66
2021/08/25 00:50:55;;;;;;;;;;;;;;;12.11;86.75;97501.25;30001;982;1862;-66
2021/08/25 00:51:26;;;;;;;;;;;;;;;12.09;86.78;97500.72;30001;982;1871;-60
2021/08/25 00:51:57;;;;;;;;;;;;;;;12.08;86.66;97501.81;30001;983;1879;-66
2021/08/25 00:52:28;;;;;;;;;;;;;;;12.05;86.81;97496.94;30001;983;1875;-67
2021/08/25 00:52:59;;;;;;;;;;;;;;;12.04;86.87;97507.03;30001;983;1862;-65
2021/08/25 00:53:29;;;;;;;;;;;;;;;12.04;87.01;97507.03;30001;983;1871;-65
2021/08/25 00:54:03;;;;;;;;;;;;;;;12.04;86.67;97500.75;30001;983;1879;-67
2021/08/25 00:54:34;;;;;;;;;;;;;;;12.04;86.67;97507.03;30001;983;1875;-66
2021/08/25 00:55:05;;;;;;;;;;;;;;;12.03;86.96;97499.97;30001;983;1880;-66
2021/08/25 00:55:40;;;;;;;;;;;;;;;12.04;86.61;97507.03;30001;983;1875;-66
2021/08/25 00:56:11;;;;;;;;;;;;;;;12.03;87.00;97502.69;30001;982;1880;-68
2021/08/25 00:56:43;;;;;;;;;;;;;;;12.03;86.92;97502.69;30001;982;1875;-60
2021/08/25 00:57:14;;;;;;;;;;;;;;;12.03;86.89;97497.22;30001;982;1862;-66
2021/08/25 00:57:46;;;;;;;;;;;;;;;12.02;86.84;97502.97;30001;982;1871;-67
2021/08/25 00:58:17;;;;;;;;;;;;;;;12.02;86.95;97503.78;30001;982;1862;-60
2021/08/25 00:58:49;;;;;;;;;;;;;;;12.02;86.76;97502.97;30001;982;1871;-66
2021/08/25 00:59:20;;;;;;;;;;;;;;;12.02;86.83;97503.78;30001;982;1880;-67
2021/08/25 00:59:51;;;;;;;;;;;;;;;12.02;86.92;97506.50;30001;983;1875;-66
2021/08/25 01:00:21;;;;;;;;;;;;;;;12.02;86.92;97508.41;30001;971;1898;-66
2021/08/25 01:01:05;;;;;;;;;;;;;;;12.02;86.77;97509.22;30001;983;1875;-66
2021/08/25 01:01:51;;;;;;;;;;;;;;;12.03;87.16;97510.84;30001;983;1862;-66
2021/08/25 01:02:30;;;;;;;;;;;;;;;12.03;87.27;97516.28;30001;983;1871;-67
2021/08/25 01:03:13;;;;;;;;;;;;;;;12.02;86.83;97508.41;30001;983;1880;-67
2021/08/25 01:03:46;;;;;;;;;;;;;;;12.00;87.37;97511.41;30001;982;1875;-66
2021/08/25 01:04:43;;;;;;;;;;;;;;;12.00;87.03;97516.84;30001;982;1880;-66
2021/08/25 01:05:15;;;;;;;;;;;;;;;11.99;87.28;97508.97;30001;982;1854;-65
2021/08/25 01:05:47;;;;;;;;;;;;;;;11.97;87.21;97514.69;30001;982;1876;-67
2021/08/25 01:06:21;;;;;;;;;;;;;;;11.93;87.17;97510.91;30001;983;1875;-59
2021/08/25 01:06:52;;;;;;;;;;;;;;;11.93;87.41;97510.91;30001;983;1879;-60
2021/08/25 01:07:24;;;;;;;;;;;;;;;11.94;87.28;97512.53;30001;983;1857;-61
2021/08/25 01:07:57;;;;;;;;;;;;;;;11.93;87.25;97508.19;30001;983;1857;-60
2021/08/25 01:08:28;;;;;;;;;;;;;;;11.93;86.92;97508.19;30001;983;1875;-67
2021/08/25 01:09:01;;;;;;;;;;;;;;;11.94;86.96;97506.28;30001;983;1879;-66
2021/08/25 01:09:36;;;;;;;;;;;;;;;11.94;86.63;97509.81;30001;983;1875;-66
2021/08/25 01:10:25;;;;;;;;;;;;;;;11.92;86.73;97509.31;30001;983;1880;-66
2021/08/25 01:11:05;;;;;;;;;;;;;;;11.91;86.64;97507.69;30001;983;1875;-67
2021/08/25 01:11:42;;;;;;;;;;;;;;;11.90;86.79;97505.25;30001;982;1880;-66
2021/08/25 01:12:13;;;;;;;;;;;;;;;11.89;87.10;97504.44;30001;982;1875;-68
2021/08/25 01:12:43;;;;;;;;;;;;;;;11.89;87.00;97506.34;30001;982;1880;-67
2021/08/25 01:13:14;;;;;;;;;;;;;;;11.88;86.70;97504.72;30001;982;1858;-60
2021/08/25 01:13:45;;;;;;;;;;;;;;;11.89;86.86;97506.34;30001;983;1875;-66
2021/08/25 01:14:17;;;;;;;;;;;;;;;11.88;87.08;97502.00;30001;983;1875;-66
2021/08/25 01:14:48;;;;;;;;;;;;;;;11.87;86.98;97506.63;30001;983;1879;-60
2021/08/25 01:15:19;;;;;;;;;;;;;;;11.87;87.05;97506.63;30001;983;1857;-66
2021/08/25 01:15:50;;;;;;;;;;;;;;;11.86;87.00;97499.56;30001;983;1875;-59
2021/08/25 01:16:21;;;;;;;;;;;;;;;11.83;87.14;97505.56;30001;983;1875;-67
2021/08/25 01:16:54;;;;;;;;;;;;;;;11.81;87.14;97504.22;30001;983;1879;-67
2021/08/25 01:17:26;;;;;;;;;;;;;;;11.79;87.78;97503.69;30001;983;1871;-65
2021/08/25 01:17:58;;;;;;;;;;;;;;;11.77;87.26;97501.31;30001;983;1880;-66
2021/08/25 01:18:29;;;;;;;;;;;;;;;11.77;87.61;97506.75;30001;983;1875;-66
2021/08/25 01:19:00;;;;;;;;;;;;;;;11.77;87.15;97506.75;30001;982;1880;-66
2021/08/25 01:19:50;;;;;;;;;;;;;;;11.77;87.54;97501.31;30001;982;1876;-59
2021/08/25 01:20:23;;;;;;;;;;;;;;;11.78;87.70;97502.13;30001;982;1859;-66
2021/08/25 01:20:56;;;;;;;;;;;;;;;11.75;87.59;97504.28;30001;982;1871;-66
2021/08/25 01:21:36;;;;;;;;;;;;;;;11.75;87.43;97503.47;30001;983;1879;-67
2021/08/25 01:22:07;;;;;;;;;;;;;;;11.75;87.54;97503.47;30001;983;1875;-66
2021/08/25 01:22:41;;;;;;;;;;;;;;;11.75;87.09;97492.59;30001;983;1879;-67
2021/08/25 01:23:13;;;;;;;;;;;;;;;11.74;87.22;97496.41;30001;986;1867;-68
2021/08/25 01:23:46;;;;;;;;;;;;;;;11.74;87.08;97490.97;30001;983;1879;-67
2021/08/25 01:24:18;;;;;;;;;;;;;;;11.75;86.91;97498.84;30001;983;1875;-67
2021/08/25 01:24:49;;;;;;;;;;;;;;;11.75;87.17;97492.59;30001;983;1880;-66
2021/08/25 01:25:22;;;;;;;;;;;;;;;11.75;86.93;97489.88;30001;983;1875;-67
2021/08/25 01:25:55;;;;;;;;;;;;;;;11.75;86.86;97487.97;30001;982;1862;-66
2021/08/25 01:26:26;;;;;;;;;;;;;;;11.74;86.71;97488.25;30001;982;1871;-60
2021/08/25 01:26:59;;;;;;;;;;;;;;;11.75;86.85;97489.88;30001;982;1880;-67
2021/08/25 01:27:30;;;;;;;;;;;;;;;11.75;87.04;97482.53;30001;982;1858;-66
2021/08/25 01:28:03;;;;;;;;;;;;;;;11.75;86.80;97490.69;30001;982;1876;-66
2021/08/25 01:28:36;;;;;;;;;;;;;;;11.76;86.63;97486.06;30001;982;1876;-67
2021/08/25 01:29:24;;;;;;;;;;;;;;;11.77;86.75;97486.91;30001;983;1879;-67
2021/08/25 01:29:59;;;;;;;;;;;;;;;11.78;87.25;97486.63;30001;983;1875;-67
2021/08/25 01:30:31;;;;;;;;;;;;;;;11.79;87.49;97482.75;30001;983;1879;-66
2021/08/25 01:31:02;;;;;;;;;;;;;;;11.78;87.69;97483.88;30001;983;1875;-66
2021/08/25 01:31:33;;;;;;;;;;;;;;;11.77;87.39;97485.00;30001;983;1880;-66
2021/08/25 01:32:04;;;;;;;;;;;;;;;11.77;87.54;97479.53;30001;983;1875;-67
2021/08/25 01:32:36;;;;;;;;;;;;;;;11.78;87.58;97481.16;30001;983;1862;-66
2021/08/25 01:33:16;;;;;;;;;;;;;;;11.77;87.50;97473.31;30001;982;1871;-66
2021/08/25 01:33:47;;;;;;;;;;;;;;;11.77;87.54;97476.84;30001;962;1771;-66
2021/08/25 01:34:18;;;;;;;;;;;;;;;11.75;87.39;97474.38;30001;982;1871;-67
2021/08/25 01:34:52;;;;;;;;;;;;;;;11.75;87.37;97479.00;30001;982;1880;-67
2021/08/25 01:35:30;;;;;;;;;;;;;;;11.75;87.67;97471.66;30001;982;1876;-66
2021/08/25 01:36:01;;;;;;;;;;;;;;;11.76;87.31;97477.91;30001;982;1880;-67
2021/08/25 01:36:33;;;;;;;;;;;;;;;11.77;87.55;97476.84;30001;983;1875;-66
2021/08/25 01:37:04;;;;;;;;;;;;;;;11.77;87.41;97474.12;30001;983;1799;-67
2021/08/25 01:37:35;;;;;;;;;;;;;;;11.78;87.35;97474.94;30001;983;1871;-66
2021/08/25 01:38:06;;;;;;;;;;;;;;;11.79;87.43;97477.31;30001;983;1862;-67
2021/08/25 01:38:41;;;;;;;;;;;;;;;11.79;86.88;97477.31;30001;983;1871;-68
2021/08/25 01:39:12;;;;;;;;;;;;;;;11.79;87.18;97466.44;30001;983;1880;-67
2021/08/25 01:39:43;;;;;;;;;;;;;;;11.81;87.01;97479.75;30001;983;1875;-66
2021/08/25 01:40:14;;;;;;;;;;;;;;;11.82;87.15;97473.22;30001;983;1880;-67
2021/08/25 01:40:45;;;;;;;;;;;;;;;11.82;87.29;97476.75;30001;982;1875;-60
2021/08/25 01:41:23;;;;;;;;;;;;;;;11.82;87.06;97476.75;30001;982;1880;-60
2021/08/25 01:41:54;;;;;;;;;;;;;;;11.83;87.15;97470.22;30001;982;1876;-60
2021/08/25 01:42:25;;;;;;;;;;;;;;;11.83;86.75;97470.22;30001;982;1880;-66
2021/08/25 01:42:56;;;;;;;;;;;;;;;11.83;86.85;97466.69;30001;982;1858;-66
2021/08/25 01:43:26;;;;;;;;;;;;;;;11.80;86.88;97468.06;30001;963;1895;-66
2021/08/25 01:43:59;;;;;;;;;;;;;;;11.80;87.03;97467.25;30001;983;1875;-66
2021/08/25 01:44:30;;;;;;;;;;;;;;;11.78;87.23;97464.84;30001;983;1879;-66
2021/08/25 01:45:00;;;;;;;;;;;;;;;11.79;87.35;97471.06;30001;983;1875;-66
2021/08/25 01:45:33;;;;;;;;;;;;;;;11.77;86.93;97463.22;30001;983;1879;-66
2021/08/25 01:46:04;;;;;;;;;;;;;;;11.76;87.09;97467.03;30001;983;1875;-65
2021/08/25 01:46:36;;;;;;;;;;;;;;;11.77;86.82;97463.22;30001;983;1880;-66
2021/08/25 01:47:07;;;;;;;;;;;;;;;11.76;86.69;97467.03;30001;983;1875;-67
2021/08/25 01:47:38;;;;;;;;;;;;;;;11.78;86.76;97464.84;30001;983;1880;-67
2021/08/25 01:48:09;;;;;;;;;;;;;;;11.79;86.59;97462.91;30001;982;1858;-68
2021/08/25 01:48:41;;;;;;;;;;;;;;;11.79;86.75;97466.44;30001;982;1875;-66
2021/08/25 01:49:13;;;;;;;;;;;;;;;11.78;86.51;97459.41;30001;982;1876;-67
2021/08/25 01:49:45;;;;;;;;;;;;;;;11.79;86.24;97461.00;30001;982;1880;-66
2021/08/25 01:50:16;;;;;;;;;;;;;;;11.78;86.62;97455.87;30001;982;1876;-66
2021/08/25 01:50:47;;;;;;;;;;;;;;;11.76;86.59;97458.88;30001;982;1863;-67
2021/08/25 01:51:18;;;;;;;;;;;;;;;11.76;86.73;97456.16;30001;982;1871;-67
2021/08/25 01:51:48;;;;;;;;;;;;;;;11.75;86.42;97459.97;30001;982;1889;-67
2021/08/25 01:52:19;;;;;;;;;;;;;;;11.73;86.25;97459.44;30001;983;1875;-60
2021/08/25 01:52:50;;;;;;;;;;;;;;;11.72;86.51;97452.38;30001;983;1879;-67
2021/08/25 01:53:21;;;;;;;;;;;;;;;11.73;86.25;97456.72;30001;983;1875;-66
2021/08/25 01:53:52;;;;;;;;;;;;;;;11.71;85.81;97459.72;30001;983;1879;-67
2021/08/25 01:54:23;;;;;;;;;;;;;;;11.69;86.00;97455.66;30001;983;1875;-68
2021/08/25 01:54:53;;;;;;;;;;;;;;;11.70;86.17;97462.72;30001;983;1862;-67
2021/08/25 01:55:24;;;;;;;;;;;;;;;11.69;86.33;97461.09;30001;987;1871;-66
2021/08/25 01:55:55;;;;;;;;;;;;;;;11.69;86.25;97461.09;30001;982;1880;-66
2021/08/25 01:56:26;;;;;;;;;;;;;;;11.68;86.06;97463.00;30001;982;1876;-66
2021/08/25 01:56:57;;;;;;;;;;;;;;;11.68;86.30;97475.78;30001;982;1880;-65
2021/08/25 01:57:28;;;;;;;;;;;;;;;11.67;86.24;97469.53;30001;982;1876;-66
2021/08/25 01:57:59;;;;;;;;;;;;;;;11.67;86.15;97468.72;30001;982;1880;-66
2021/08/25 01:58:30;;;;;;;;;;;;;;;11.67;86.40;97469.53;30001;983;1875;-65
2021/08/25 01:59:01;;;;;;;;;;;;;;;11.67;86.18;97466.00;30001;983;1879;-68
2021/08/25 01:59:33;;;;;;;;;;;;;;;11.66;86.44;97461.66;30001;983;1857;-66
2021/08/25 02:00:05;;;;;;;;;;;;;;;11.65;86.59;97465.47;30001;983;1857;-67
2021/08/25 02:00:35;;;;;;;;;;;;;;;11.66;86.68;97467.09;30001;983;1875;-67
2021/08/25 02:01:07;;;;;;;;;;;;;;;11.65;86.37;97466.28;30001;983;1879;-66
2021/08/25 02:01:37;;;;;;;;;;;;;;;11.65;86.43;97469.00;30001;983;1875;-67
2021/08/25 02:02:08;;;;;;;;;;;;;;;11.66;86.61;97472.53;30001;983;1880;-67
2021/08/25 02:02:39;;;;;;;;;;;;;;;11.66;86.79;97469.81;30001;983;1875;-66
2021/08/25 02:03:10;;;;;;;;;;;;;;;11.64;86.70;97472.81;30001;982;1880;-66
2021/08/25 02:03:40;;;;;;;;;;;;;;;11.64;86.87;97474.72;30001;982;1858;-67
2021/08/25 02:04:11;;;;;;;;;;;;;;;11.64;86.84;97477.44;30001;982;1858;-61
2021/08/25 02:04:42;;;;;;;;;;;;;;;11.64;86.44;97470.09;30001;982;1876;-66
2021/08/25 02:05:13;;;;;;;;;;;;;;;11.64;86.32;97474.72;30001;982;1791;-67
2021/08/25 02:05:44;;;;;;;;;;;;;;;11.64;86.61;97474.72;30001;983;1875;-66
2021/08/25 02:06:15;;;;;;;;;;;;;;;11.62;86.30;97469.56;30001;983;1879;-67
2021/08/25 02:06:45;;;;;;;;;;;;;;;11.62;86.59;97482.34;30001;983;1875;-68
2021/08/25 02:07:16;;;;;;;;;;;;;;;11.62;86.66;97476.91;30001;983;1879;-66
2021/08/25 02:07:47;;;;;;;;;;;;;;;11.61;86.93;97486.16;30001;983;1875;-67
2021/08/25 02:08:18;;;;;;;;;;;;;;;11.60;87.10;97484.53;30001;983;1879;-66
2021/08/25 02:08:48;;;;;;;;;;;;;;;11.59;86.79;97474.78;30001;983;1858;-65
2021/08/25 02:09:20;;;;;;;;;;;;;;;11.59;86.64;97482.94;30001;983;1875;-65
2021/08/25 02:09:51;;;;;;;;;;;;;;;11.57;86.84;97482.41;30001;983;1875;-66
2021/08/25 02:10:22;;;;;;;;;;;;;;;11.57;86.67;97485.13;30001;983;1880;-60
2021/08/25 02:10:52;;;;;;;;;;;;;;;11.57;87.14;97482.41;30001;982;1875;-65
2021/08/25 02:11:23;;;;;;;;;;;;;;;11.55;87.02;97481.88;30001;982;1862;-67
2021/08/25 02:11:54;;;;;;;;;;;;;;;11.53;87.05;97484.06;30001;982;1871;-68
2021/08/25 02:12:25;;;;;;;;;;;;;;;11.51;86.99;97480.81;30001;982;1880;-66
2021/08/25 02:12:56;;;;;;;;;;;;;;;11.51;87.18;97483.53;30001;982;1876;-67
2021/08/25 02:13:27;;;;;;;;;;;;;;;11.51;86.96;97475.38;30001;983;1879;-67
2021/08/25 02:13:57;;;;;;;;;;;;;;;11.51;87.19;97478.09;30001;983;1857;-66
2021/08/25 02:14:28;;;;;;;;;;;;;;;11.50;87.22;97471.84;30001;983;1875;-60
2021/08/25 02:15:00;;;;;;;;;;;;;;;11.50;86.93;97473.75;30001;983;1875;-61
2021/08/25 02:15:32;;;;;;;;;;;;;;;11.49;86.93;97478.37;30001;983;1879;-61
2021/08/25 02:16:04;;;;;;;;;;;;;;;11.48;86.85;97473.22;30001;983;1875;-65
2021/08/25 02:16:34;;;;;;;;;;;;;;;11.46;87.27;97472.69;30001;983;1879;-61
2021/08/25 02:17:06;;;;;;;;;;;;;;;11.43;87.06;97469.44;30001;983;1875;-61
2021/08/25 02:17:38;;;;;;;;;;;;;;;11.43;86.82;97473.28;30001;983;1862;-60
2021/08/25 02:18:09;;;;;;;;;;;;;;;11.42;87.48;97469.75;30001;983;1853;-65
2021/08/25 02:18:40;;;;;;;;;;;;;;;11.41;87.53;97471.66;30001;982;1880;-66
2021/08/25 02:19:10;;;;;;;;;;;;;;;11.39;87.71;97468.41;30001;982;1876;-60
2021/08/25 02:19:41;;;;;;;;;;;;;;;11.39;87.21;97463.00;30001;982;1880;-65
2021/08/25 02:20:12;;;;;;;;;;;;;;;11.39;87.48;97463.00;30001;982;1876;-61
2021/08/25 02:20:43;;;;;;;;;;;;;;;11.38;87.12;97466.81;30001;982;1880;-64
2021/08/25 02:21:14;;;;;;;;;;;;;;;11.38;87.09;97466.81;30001;983;1857;-66
2021/08/25 02:21:45;;;;;;;;;;;;;;;11.38;87.24;97463.28;30001;983;1875;-65
2021/08/25 02:22:16;;;;;;;;;;;;;;;11.36;87.21;97460.84;30001;983;1875;-66
2021/08/25 02:22:47;;;;;;;;;;;;;;;11.36;87.14;97466.28;30001;983;1879;-68
2021/08/25 02:23:18;;;;;;;;;;;;;;;11.35;87.24;97459.22;30001;983;1875;-66
2021/08/25 02:23:50;;;;;;;;;;;;;;;11.35;87.01;97464.66;30001;983;1879;-62
2021/08/25 02:24:20;;;;;;;;;;;;;;;11.35;87.21;97466.56;30001;983;1875;-61
2021/08/25 02:24:51;;;;;;;;;;;;;;;11.35;86.91;97461.94;30001;983;1880;-61
2021/08/25 02:25:22;;;;;;;;;;;;;;;11.34;87.21;97454.87;30001;983;1780;-65
2021/08/25 02:25:55;;;;;;;;;;;;;;;11.34;87.28;97462.22;30001;982;1862;-60
2021/08/25 02:26:26;;;;;;;;;;;;;;;11.34;87.42;97465.75;30001;973;1889;-60
2021/08/25 02:26:57;;;;;;;;;;;;;;;11.34;87.03;97460.31;30001;982;1880;-60
2021/08/25 02:27:28;;;;;;;;;;;;;;;11.34;87.26;97460.31;30001;982;1876;-66
2021/08/25 02:27:59;;;;;;;;;;;;;;;11.33;87.56;97455.97;30001;982;1880;-66
2021/08/25 02:28:30;;;;;;;;;;;;;;;11.31;87.92;97450.00;30001;983;1875;-59
2021/08/25 02:29:01;;;;;;;;;;;;;;;11.29;87.81;97463.06;30001;983;1879;-61
2021/08/25 02:29:33;;;;;;;;;;;;;;;11.29;87.98;97457.63;30001;983;1875;-66
2021/08/25 02:30:04;;;;;;;;;;;;;;;11.28;87.88;97461.44;30001;983;1862;-61
2021/08/25 02:30:35;;;;;;;;;;;;;;;11.28;88.09;97466.06;30001;983;1871;-61
2021/08/25 02:31:06;;;;;;;;;;;;;;;11.27;87.75;97456.28;30001;983;1879;-66
2021/08/25 02:31:38;;;;;;;;;;;;;;;11.25;87.65;97456.56;30001;983;1875;-67
2021/08/25 02:32:09;;;;;;;;;;;;;;;11.25;87.72;97459.28;30001;983;1850;-61
2021/08/25 02:32:42;;;;;;;;;;;;;;;11.24;87.64;97454.94;30001;982;1875;-61
2021/08/25 02:33:12;;;;;;;;;;;;;;;11.24;88.11;97460.38;30001;982;1880;-60
2021/08/25 02:33:44;;;;;;;;;;;;;;;11.23;88.17;97457.94;30001;982;1858;-61
2021/08/25 02:34:15;;;;;;;;;;;;;;;11.21;88.07;97455.50;30001;982;1876;-61
2021/08/25 02:34:46;;;;;;;;;;;;;;;11.20;88.32;97459.31;30001;982;1876;-60
2021/08/25 02:35:17;;;;;;;;;;;;;;;11.20;88.10;97459.31;30001;982;1880;-62
2021/08/25 02:35:48;;;;;;;;;;;;;;;11.19;88.43;97463.13;30001;982;1876;-66
2021/08/25 02:36:19;;;;;;;;;;;;;;;11.20;88.20;97459.31;30001;983;1879;-67
2021/08/25 02:36:50;;;;;;;;;;;;;;;11.21;88.47;97455.50;30001;983;1875;-66
2021/08/25 02:37:24;;;;;;;;;;;;;;;11.21;88.23;97465.56;30001;983;1879;-67
2021/08/25 02:37:55;;;;;;;;;;;;;;;11.20;88.38;97455.78;30001;983;1875;-65
2021/08/25 02:38:26;;;;;;;;;;;;;;;11.21;88.20;97466.38;30001;983;1880;-60
2021/08/25 02:38:57;;;;;;;;;;;;;;;11.19;88.31;97456.88;30001;983;1858;-61
2021/08/25 02:39:29;;;;;;;;;;;;;;;11.19;88.59;97457.69;30001;983;1875;-60
2021/08/25 02:40:00;;;;;;;;;;;;;;;11.19;88.59;97462.31;30001;983;1875;-60
2021/08/25 02:40:31;;;;;;;;;;;;;;;11.18;88.35;97461.50;30001;982;1879;-67
2021/08/25 02:41:02;;;;;;;;;;;;;;;11.20;88.54;97458.50;30001;982;1876;-62
2021/08/25 02:41:33;;;;;;;;;;;;;;;11.19;88.30;97454.97;30001;982;1880;-61
2021/08/25 02:42:04;;;;;;;;;;;;;;;11.21;88.54;97455.50;30002;982;1876;-66
2021/08/25 02:42:35;;;;;;;;;;;;;;;11.22;88.12;97454.41;30002;982;1880;-60
2021/08/25 02:43:07;;;;;;;;;;;;;;;11.21;88.39;97455.50;30002;982;1876;-65
2021/08/25 02:43:38;;;;;;;;;;;;;;;11.23;88.46;97457.94;30002;983;1879;-61
2021/08/25 02:44:09;;;;;;;;;;;;;;;11.24;88.37;97452.22;30002;983;1857;-65
2021/08/25 02:44:40;;;;;;;;;;;;;;;11.24;88.46;97454.94;30002;983;1875;-66
2021/08/25 02:45:11;;;;;;;;;;;;;;;11.26;88.66;97457.38;30002;983;1875;-61
2021/08/25 02:45:42;;;;;;;;;;;;;;;11.24;88.47;97449.50;30002;983;1879;-66
2021/08/25 02:46:13;;;;;;;;;;;;;;;11.25;88.76;97453.84;30002;983;1875;-61
2021/08/25 02:46:47;;;;;;;;;;;;;;;11.26;88.38;97451.94;30002;983;1880;-65
2021/08/25 02:47:17;;;;;;;;;;;;;;;11.26;88.50;97449.22;30002;983;1875;-61
2021/08/25 02:47:48;;;;;;;;;;;;;;;11.26;88.35;97454.66;30002;982;1880;-60
2021/08/25 02:48:19;;;;;;;;;;;;;;;11.25;88.50;97453.84;30002;982;1875;-60
2021/08/25 02:48:50;;;;;;;;;;;;;;;11.25;88.21;97451.12;30002;982;1880;-66
2021/08/25 02:49:21;;;;;;;;;;;;;;;11.25;88.38;97451.12;30002;982;1858;-66
2021/08/25 02:49:51;;;;;;;;;;;;;;;11.24;88.59;97449.50;30002;982;1876;-65